sensor_id;sensor_type;location;lat;lon;timestamp;P1;durP1;ratioP1;P2;durP2;ratioP2
66669;SDS011;53568;52.164;4.472;2024-01-06T00:01:59;8.11;;;8.11;;
66669;SDS011;53568;52.164;4.472;2024-01-06T00:04:25;8.39;;;8.39;;
66669;SDS011;53568;52.164;4.472;2024-01-06T00:06:51;7.88;;;7.88;;
66669;SDS011;53568;52.164;4.472;2024-01-06T00:09:16;7.96;;;7.96;;
66669;SDS011;53568;52.164;4.472;2024-01-06T00:11:42;7.36;;;7.36;;
66669;SDS011;53568;52.164;4.472;2024-01-06T00:14:07;7.02;;;7.02;;
66669;SDS011;53568;52.164;4.472;2024-01-06T00:16:32;7.43;;;7.43;;
66669;SDS011;53568;52.164;4.472;2024-01-06T00:18:58;7.16;;;7.14;;
66669;SDS011;53568;52.164;4.472;2024-01-06T00:21:24;6.83;;;6.83;;
66669;SDS011;53568;52.164;4.472;2024-01-06T00:23:50;6.78;;;6.78;;
66669;SDS011;53568;52.164;4.472;2024-01-06T00:26:15;6.98;;;6.98;;
66669;SDS011;53568;52.164;4.472;2024-01-06T00:28:41;6.49;;;6.49;;
66669;SDS011;53568;52.164;4.472;2024-01-06T00:31:07;6.14;;;6.12;;
66669;SDS011;53568;52.164;4.472;2024-01-06T00:33:33;6.29;;;6.29;;
66669;SDS011;53568;52.164;4.472;2024-01-06T00:35:59;6.11;;;6.11;;
66669;SDS011;53568;52.164;4.472;2024-01-06T00:38:24;6.33;;;6.33;;
66669;SDS011;53568;52.164;4.472;2024-01-06T00:40:50;5.98;;;5.98;;
66669;SDS011;53568;52.164;4.472;2024-01-06T00:43:16;5.58;;;5.58;;
66669;SDS011;53568;52.164;4.472;2024-01-06T00:45:41;5.83;;;5.82;;
66669;SDS011;53568;52.164;4.472;2024-01-06T00:48:07;5.94;;;5.94;;
66669;SDS011;53568;52.164;4.472;2024-01-06T00:50:32;5.56;;;5.56;;
66669;SDS011;53568;52.164;4.472;2024-01-06T00:52:58;4.89;;;4.89;;
66669;SDS011;53568;52.164;4.472;2024-01-06T00:55:23;5.16;;;5.16;;
66669;SDS011;53568;52.164;4.472;2024-01-06T00:57:49;5.21;;;5.21;;
66669;SDS011;53568;52.164;4.472;2024-01-06T01:00:15;5.05;;;5.05;;
66669;SDS011;53568;52.164;4.472;2024-01-06T01:02:41;5.35;;;5.35;;
66669;SDS011;53568;52.164;4.472;2024-01-06T01:05:06;5.15;;;5.15;;
66669;SDS011;53568;52.164;4.472;2024-01-06T01:07:33;5.34;;;5.34;;
66669;SDS011;53568;52.164;4.472;2024-01-06T01:09:58;4.81;;;4.81;;
66669;SDS011;53568;52.164;4.472;2024-01-06T01:12:24;4.92;;;4.92;;
66669;SDS011;53568;52.164;4.472;2024-01-06T01:14:50;4.52;;;4.52;;
66669;SDS011;53568;52.164;4.472;2024-01-06T01:17:17;4.36;;;4.36;;
66669;SDS011;53568;52.164;4.472;2024-01-06T01:19:42;3.89;;;3.89;;
66669;SDS011;53568;52.164;4.472;2024-01-06T01:22:07;3.25;;;3.25;;
66669;SDS011;53568;52.164;4.472;2024-01-06T01:24:33;3.49;;;3.49;;
66669;SDS011;53568;52.164;4.472;2024-01-06T01:26:59;3.44;;;3.44;;
66669;SDS011;53568;52.164;4.472;2024-01-06T01:29:25;3.04;;;3.04;;
66669;SDS011;53568;52.164;4.472;2024-01-06T01:31:50;3.06;;;3.06;;
66669;SDS011;53568;52.164;4.472;2024-01-06T01:34:16;3.09;;;3.09;;
66669;SDS011;53568;52.164;4.472;2024-01-06T01:36:41;3.23;;;3.23;;
66669;SDS011;53568;52.164;4.472;2024-01-06T01:39:07;2.96;;;2.96;;
66669;SDS011;53568;52.164;4.472;2024-01-06T01:41:32;3.02;;;3.02;;
66669;SDS011;53568;52.164;4.472;2024-01-06T01:43:58;2.83;;;2.83;;
66669;SDS011;53568;52.164;4.472;2024-01-06T01:46:27;3.19;;;3.19;;
66669;SDS011;53568;52.164;4.472;2024-01-06T01:48:54;3.52;;;3.52;;
66669;SDS011;53568;52.164;4.472;2024-01-06T01:51:23;3.24;;;3.24;;
66669;SDS011;53568;52.164;4.472;2024-01-06T01:53:52;3.76;;;3.76;;
66669;SDS011;53568;52.164;4.472;2024-01-06T01:56:18;4.02;;;4.02;;
66669;SDS011;53568;52.164;4.472;2024-01-06T01:58:44;4.12;;;4.12;;
66669;SDS011;53568;52.164;4.472;2024-01-06T02:01:10;4.02;;;4.02;;
66669;SDS011;53568;52.164;4.472;2024-01-06T02:03:36;4.18;;;4.18;;
66669;SDS011;53568;52.164;4.472;2024-01-06T02:06:02;4.26;;;4.26;;
66669;SDS011;53568;52.164;4.472;2024-01-06T02:08:28;4.11;;;4.11;;
66669;SDS011;53568;52.164;4.472;2024-01-06T02:10:54;4.32;;;4.32;;
66669;SDS011;53568;52.164;4.472;2024-01-06T02:13:22;4.13;;;4.13;;
66669;SDS011;53568;52.164;4.472;2024-01-06T02:15:49;4.41;;;4.41;;
66669;SDS011;53568;52.164;4.472;2024-01-06T02:18:14;4.48;;;4.48;;
66669;SDS011;53568;52.164;4.472;2024-01-06T02:20:41;4.47;;;4.47;;
66669;SDS011;53568;52.164;4.472;2024-01-06T02:23:09;4.69;;;4.69;;
66669;SDS011;53568;52.164;4.472;2024-01-06T02:25:34;4.81;;;4.81;;
66669;SDS011;53568;52.164;4.472;2024-01-06T02:28:00;5.38;;;5.38;;
66669;SDS011;53568;52.164;4.472;2024-01-06T02:30:26;5.48;;;5.48;;
66669;SDS011;53568;52.164;4.472;2024-01-06T02:32:51;5.53;;;5.53;;
66669;SDS011;53568;52.164;4.472;2024-01-06T02:35:17;5.32;;;5.32;;
66669;SDS011;53568;52.164;4.472;2024-01-06T02:37:43;6.16;;;6.16;;
66669;SDS011;53568;52.164;4.472;2024-01-06T02:40:08;6.10;;;6.10;;
66669;SDS011;53568;52.164;4.472;2024-01-06T02:42:34;6.00;;;6.00;;
66669;SDS011;53568;52.164;4.472;2024-01-06T02:45:00;6.23;;;6.23;;
66669;SDS011;53568;52.164;4.472;2024-01-06T02:47:25;6.31;;;6.31;;
66669;SDS011;53568;52.164;4.472;2024-01-06T02:49:51;6.04;;;6.04;;
66669;SDS011;53568;52.164;4.472;2024-01-06T02:52:16;5.88;;;5.88;;
66669;SDS011;53568;52.164;4.472;2024-01-06T02:54:42;6.46;;;6.46;;
66669;SDS011;53568;52.164;4.472;2024-01-06T02:57:07;6.48;;;6.48;;
66669;SDS011;53568;52.164;4.472;2024-01-06T02:59:33;6.66;;;6.66;;
66669;SDS011;53568;52.164;4.472;2024-01-06T03:02:00;6.77;;;6.77;;
66669;SDS011;53568;52.164;4.472;2024-01-06T03:04:26;6.37;;;6.37;;
66669;SDS011;53568;52.164;4.472;2024-01-06T03:06:52;6.39;;;6.39;;
66669;SDS011;53568;52.164;4.472;2024-01-06T03:09:18;6.42;;;6.42;;
66669;SDS011;53568;52.164;4.472;2024-01-06T03:11:44;6.54;;;6.54;;
66669;SDS011;53568;52.164;4.472;2024-01-06T03:14:10;6.53;;;6.53;;
66669;SDS011;53568;52.164;4.472;2024-01-06T03:16:35;4.93;;;4.93;;
66669;SDS011;53568;52.164;4.472;2024-01-06T03:19:01;4.70;;;4.70;;
66669;SDS011;53568;52.164;4.472;2024-01-06T03:21:26;5.04;;;5.04;;
66669;SDS011;53568;52.164;4.472;2024-01-06T03:23:52;5.78;;;5.78;;
66669;SDS011;53568;52.164;4.472;2024-01-06T03:26:20;5.74;;;5.74;;
66669;SDS011;53568;52.164;4.472;2024-01-06T03:28:48;6.18;;;6.18;;
66669;SDS011;53568;52.164;4.472;2024-01-06T03:31:15;6.43;;;6.43;;
66669;SDS011;53568;52.164;4.472;2024-01-06T03:33:46;6.72;;;6.72;;
66669;SDS011;53568;52.164;4.472;2024-01-06T03:36:12;6.56;;;6.56;;
66669;SDS011;53568;52.164;4.472;2024-01-06T03:38:38;6.45;;;6.45;;
66669;SDS011;53568;52.164;4.472;2024-01-06T03:41:03;7.01;;;7.01;;
66669;SDS011;53568;52.164;4.472;2024-01-06T03:43:29;6.32;;;6.32;;
66669;SDS011;53568;52.164;4.472;2024-01-06T03:45:54;5.83;;;5.82;;
66669;SDS011;53568;52.164;4.472;2024-01-06T03:48:21;5.66;;;5.66;;
66669;SDS011;53568;52.164;4.472;2024-01-06T03:50:47;6.01;;;6.01;;
66669;SDS011;53568;52.164;4.472;2024-01-06T03:53:12;5.78;;;5.78;;
66669;SDS011;53568;52.164;4.472;2024-01-06T03:55:38;5.48;;;5.48;;
66669;SDS011;53568;52.164;4.472;2024-01-06T03:58:04;5.68;;;5.68;;
66669;SDS011;53568;52.164;4.472;2024-01-06T04:00:29;5.49;;;5.49;;
66669;SDS011;53568;52.164;4.472;2024-01-06T04:02:54;5.08;;;5.08;;
66669;SDS011;53568;52.164;4.472;2024-01-06T04:05:20;5.33;;;5.33;;
66669;SDS011;53568;52.164;4.472;2024-01-06T04:07:45;5.36;;;5.36;;
66669;SDS011;53568;52.164;4.472;2024-01-06T04:10:11;5.33;;;5.33;;
66669;SDS011;53568;52.164;4.472;2024-01-06T04:12:37;5.36;;;5.36;;
66669;SDS011;53568;52.164;4.472;2024-01-06T04:15:02;5.08;;;5.08;;
66669;SDS011;53568;52.164;4.472;2024-01-06T04:17:28;4.93;;;4.93;;
66669;SDS011;53568;52.164;4.472;2024-01-06T04:19:54;4.80;;;4.80;;
66669;SDS011;53568;52.164;4.472;2024-01-06T04:22:19;4.88;;;4.88;;
66669;SDS011;53568;52.164;4.472;2024-01-06T04:24:45;4.73;;;4.73;;
66669;SDS011;53568;52.164;4.472;2024-01-06T04:27:10;4.56;;;4.56;;
66669;SDS011;53568;52.164;4.472;2024-01-06T04:29:36;4.14;;;4.14;;
66669;SDS011;53568;52.164;4.472;2024-01-06T04:32:02;4.01;;;4.01;;
66669;SDS011;53568;52.164;4.472;2024-01-06T04:34:27;4.20;;;4.20;;
66669;SDS011;53568;52.164;4.472;2024-01-06T04:36:53;3.99;;;3.99;;
66669;SDS011;53568;52.164;4.472;2024-01-06T04:39:18;3.91;;;3.91;;
66669;SDS011;53568;52.164;4.472;2024-01-06T04:41:44;3.61;;;3.61;;
66669;SDS011;53568;52.164;4.472;2024-01-06T04:44:09;3.47;;;3.47;;
66669;SDS011;53568;52.164;4.472;2024-01-06T04:46:35;3.35;;;3.35;;
66669;SDS011;53568;52.164;4.472;2024-01-06T04:49:00;3.51;;;3.51;;
66669;SDS011;53568;52.164;4.472;2024-01-06T04:51:26;3.82;;;3.82;;
66669;SDS011;53568;52.164;4.472;2024-01-06T04:53:52;3.75;;;3.75;;
66669;SDS011;53568;52.164;4.472;2024-01-06T04:56:17;3.82;;;3.82;;
66669;SDS011;53568;52.164;4.472;2024-01-06T04:58:43;3.40;;;3.40;;
66669;SDS011;53568;52.164;4.472;2024-01-06T05:01:08;3.37;;;3.37;;
66669;SDS011;53568;52.164;4.472;2024-01-06T05:03:34;3.82;;;3.82;;
66669;SDS011;53568;52.164;4.472;2024-01-06T05:06:00;3.40;;;3.40;;
66669;SDS011;53568;52.164;4.472;2024-01-06T05:08:25;3.52;;;3.52;;
66669;SDS011;53568;52.164;4.472;2024-01-06T05:10:51;3.36;;;3.36;;
66669;SDS011;53568;52.164;4.472;2024-01-06T05:13:19;3.17;;;3.17;;
66669;SDS011;53568;52.164;4.472;2024-01-06T05:15:44;3.54;;;3.54;;
66669;SDS011;53568;52.164;4.472;2024-01-06T05:18:10;3.49;;;3.49;;
66669;SDS011;53568;52.164;4.472;2024-01-06T05:20:35;3.66;;;3.66;;
66669;SDS011;53568;52.164;4.472;2024-01-06T05:23:01;3.59;;;3.59;;
66669;SDS011;53568;52.164;4.472;2024-01-06T05:25:26;3.70;;;3.70;;
66669;SDS011;53568;52.164;4.472;2024-01-06T05:27:52;3.61;;;3.61;;
66669;SDS011;53568;52.164;4.472;2024-01-06T05:30:17;3.20;;;3.20;;
66669;SDS011;53568;52.164;4.472;2024-01-06T05:32:43;3.18;;;3.18;;
66669;SDS011;53568;52.164;4.472;2024-01-06T05:35:09;3.16;;;3.16;;
66669;SDS011;53568;52.164;4.472;2024-01-06T05:37:35;2.89;;;2.89;;
66669;SDS011;53568;52.164;4.472;2024-01-06T05:40:00;2.62;;;2.62;;
66669;SDS011;53568;52.164;4.472;2024-01-06T05:42:28;2.49;;;2.49;;
66669;SDS011;53568;52.164;4.472;2024-01-06T05:44:54;2.90;;;2.90;;
66669;SDS011;53568;52.164;4.472;2024-01-06T05:47:20;2.63;;;2.63;;
66669;SDS011;53568;52.164;4.472;2024-01-06T05:49:45;2.61;;;2.61;;
66669;SDS011;53568;52.164;4.472;2024-01-06T05:52:11;2.71;;;2.71;;
66669;SDS011;53568;52.164;4.472;2024-01-06T05:54:39;2.73;;;2.73;;
66669;SDS011;53568;52.164;4.472;2024-01-06T05:57:07;2.71;;;2.71;;
66669;SDS011;53568;52.164;4.472;2024-01-06T05:59:33;2.75;;;2.75;;
66669;SDS011;53568;52.164;4.472;2024-01-06T06:01:59;2.70;;;2.70;;
66669;SDS011;53568;52.164;4.472;2024-01-06T06:04:24;2.64;;;2.64;;
66669;SDS011;53568;52.164;4.472;2024-01-06T06:06:50;3.05;;;3.05;;
66669;SDS011;53568;52.164;4.472;2024-01-06T06:09:17;3.64;;;3.64;;
66669;SDS011;53568;52.164;4.472;2024-01-06T06:11:43;3.82;;;3.82;;
66669;SDS011;53568;52.164;4.472;2024-01-06T06:14:09;4.19;;;4.19;;
66669;SDS011;53568;52.164;4.472;2024-01-06T06:16:35;4.04;;;4.04;;
66669;SDS011;53568;52.164;4.472;2024-01-06T06:19:03;4.22;;;4.22;;
66669;SDS011;53568;52.164;4.472;2024-01-06T06:21:29;4.34;;;4.34;;
66669;SDS011;53568;52.164;4.472;2024-01-06T06:23:54;4.25;;;4.25;;
66669;SDS011;53568;52.164;4.472;2024-01-06T06:26:20;4.38;;;4.38;;
66669;SDS011;53568;52.164;4.472;2024-01-06T06:28:47;4.59;;;4.59;;
66669;SDS011;53568;52.164;4.472;2024-01-06T06:31:12;4.60;;;4.60;;
66669;SDS011;53568;52.164;4.472;2024-01-06T06:33:38;4.24;;;4.24;;
66669;SDS011;53568;52.164;4.472;2024-01-06T06:36:04;3.50;;;3.50;;
66669;SDS011;53568;52.164;4.472;2024-01-06T06:38:30;3.73;;;3.73;;
66669;SDS011;53568;52.164;4.472;2024-01-06T06:40:55;3.33;;;3.33;;
66669;SDS011;53568;52.164;4.472;2024-01-06T06:43:21;3.26;;;3.26;;
66669;SDS011;53568;52.164;4.472;2024-01-06T06:45:47;3.33;;;3.33;;
66669;SDS011;53568;52.164;4.472;2024-01-06T06:48:12;3.75;;;3.75;;
66669;SDS011;53568;52.164;4.472;2024-01-06T06:50:38;3.54;;;3.54;;
66669;SDS011;53568;52.164;4.472;2024-01-06T06:53:03;3.62;;;3.62;;
66669;SDS011;53568;52.164;4.472;2024-01-06T06:55:29;3.64;;;3.64;;
66669;SDS011;53568;52.164;4.472;2024-01-06T06:57:54;3.82;;;3.82;;
66669;SDS011;53568;52.164;4.472;2024-01-06T07:00:20;4.24;;;4.24;;
66669;SDS011;53568;52.164;4.472;2024-01-06T07:02:46;4.58;;;4.58;;
66669;SDS011;53568;52.164;4.472;2024-01-06T07:05:11;4.49;;;4.49;;
66669;SDS011;53568;52.164;4.472;2024-01-06T07:07:37;4.88;;;4.88;;
66669;SDS011;53568;52.164;4.472;2024-01-06T07:10:06;5.49;;;5.49;;
66669;SDS011;53568;52.164;4.472;2024-01-06T07:12:32;5.66;;;5.66;;
66669;SDS011;53568;52.164;4.472;2024-01-06T07:14:57;5.94;;;5.94;;
66669;SDS011;53568;52.164;4.472;2024-01-06T07:17:24;6.07;;;6.07;;
66669;SDS011;53568;52.164;4.472;2024-01-06T07:19:50;5.65;;;5.65;;
66669;SDS011;53568;52.164;4.472;2024-01-06T07:22:15;5.64;;;5.64;;
66669;SDS011;53568;52.164;4.472;2024-01-06T07:24:42;5.64;;;5.64;;
66669;SDS011;53568;52.164;4.472;2024-01-06T07:27:07;6.31;;;6.31;;
66669;SDS011;53568;52.164;4.472;2024-01-06T07:29:33;5.66;;;5.66;;
66669;SDS011;53568;52.164;4.472;2024-01-06T07:31:58;5.79;;;5.79;;
66669;SDS011;53568;52.164;4.472;2024-01-06T07:34:24;5.85;;;5.85;;
66669;SDS011;53568;52.164;4.472;2024-01-06T07:36:50;5.76;;;5.76;;
66669;SDS011;53568;52.164;4.472;2024-01-06T07:39:16;5.04;;;5.04;;
66669;SDS011;53568;52.164;4.472;2024-01-06T07:41:42;4.96;;;4.96;;
66669;SDS011;53568;52.164;4.472;2024-01-06T07:44:07;5.56;;;5.56;;
66669;SDS011;53568;52.164;4.472;2024-01-06T07:46:33;5.90;;;5.90;;
66669;SDS011;53568;52.164;4.472;2024-01-06T07:49:00;6.49;;;6.49;;
66669;SDS011;53568;52.164;4.472;2024-01-06T07:51:25;6.15;;;6.15;;
66669;SDS011;53568;52.164;4.472;2024-01-06T07:53:51;6.34;;;6.34;;
66669;SDS011;53568;52.164;4.472;2024-01-06T07:56:16;5.81;;;5.81;;
66669;SDS011;53568;52.164;4.472;2024-01-06T07:58:43;5.62;;;5.62;;
66669;SDS011;53568;52.164;4.472;2024-01-06T08:01:08;5.62;;;5.62;;
66669;SDS011;53568;52.164;4.472;2024-01-06T08:03:34;5.50;;;5.49;;
66669;SDS011;53568;52.164;4.472;2024-01-06T08:05:59;5.97;;;5.97;;
66669;SDS011;53568;52.164;4.472;2024-01-06T08:08:25;5.34;;;5.34;;
66669;SDS011;53568;52.164;4.472;2024-01-06T08:10:51;5.35;;;5.35;;
66669;SDS011;53568;52.164;4.472;2024-01-06T08:13:17;5.45;;;5.45;;
66669;SDS011;53568;52.164;4.472;2024-01-06T08:15:42;5.10;;;5.10;;
66669;SDS011;53568;52.164;4.472;2024-01-06T08:18:08;5.23;;;5.23;;
66669;SDS011;53568;52.164;4.472;2024-01-06T08:20:33;4.75;;;4.75;;
66669;SDS011;53568;52.164;4.472;2024-01-06T08:22:59;5.18;;;5.18;;
66669;SDS011;53568;52.164;4.472;2024-01-06T08:25:24;4.94;;;4.94;;
66669;SDS011;53568;52.164;4.472;2024-01-06T08:27:50;5.24;;;5.24;;
66669;SDS011;53568;52.164;4.472;2024-01-06T08:30:15;5.33;;;5.33;;
66669;SDS011;53568;52.164;4.472;2024-01-06T08:32:41;5.20;;;5.20;;
66669;SDS011;53568;52.164;4.472;2024-01-06T08:35:06;4.96;;;4.96;;
66669;SDS011;53568;52.164;4.472;2024-01-06T08:37:32;5.00;;;5.00;;
66669;SDS011;53568;52.164;4.472;2024-01-06T08:39:58;4.47;;;4.47;;
66669;SDS011;53568;52.164;4.472;2024-01-06T08:42:23;4.26;;;4.26;;
66669;SDS011;53568;52.164;4.472;2024-01-06T08:44:51;4.12;;;4.12;;
66669;SDS011;53568;52.164;4.472;2024-01-06T08:47:16;3.79;;;3.79;;
66669;SDS011;53568;52.164;4.472;2024-01-06T08:49:42;4.46;;;4.46;;
66669;SDS011;53568;52.164;4.472;2024-01-06T08:52:08;4.51;;;4.51;;
66669;SDS011;53568;52.164;4.472;2024-01-06T08:54:33;4.38;;;4.37;;
66669;SDS011;53568;52.164;4.472;2024-01-06T08:56:59;4.28;;;4.28;;
66669;SDS011;53568;52.164;4.472;2024-01-06T08:59:25;4.54;;;4.54;;
66669;SDS011;53568;52.164;4.472;2024-01-06T09:01:50;4.53;;;4.53;;
66669;SDS011;53568;52.164;4.472;2024-01-06T09:04:17;4.30;;;4.30;;
66669;SDS011;53568;52.164;4.472;2024-01-06T09:06:43;4.48;;;4.48;;
66669;SDS011;53568;52.164;4.472;2024-01-06T09:09:09;4.71;;;4.71;;
66669;SDS011;53568;52.164;4.472;2024-01-06T09:11:35;4.94;;;4.94;;
66669;SDS011;53568;52.164;4.472;2024-01-06T09:14:00;4.67;;;4.67;;
66669;SDS011;53568;52.164;4.472;2024-01-06T09:16:26;4.74;;;4.74;;
66669;SDS011;53568;52.164;4.472;2024-01-06T09:18:52;4.25;;;4.25;;
66669;SDS011;53568;52.164;4.472;2024-01-06T09:21:17;4.38;;;4.38;;
66669;SDS011;53568;52.164;4.472;2024-01-06T09:23:43;4.21;;;4.20;;
66669;SDS011;53568;52.164;4.472;2024-01-06T09:26:09;4.40;;;4.40;;
66669;SDS011;53568;52.164;4.472;2024-01-06T09:28:35;4.39;;;4.39;;
66669;SDS011;53568;52.164;4.472;2024-01-06T09:31:00;4.29;;;4.29;;
66669;SDS011;53568;52.164;4.472;2024-01-06T09:33:26;4.01;;;4.01;;
66669;SDS011;53568;52.164;4.472;2024-01-06T09:35:52;4.15;;;4.15;;
66669;SDS011;53568;52.164;4.472;2024-01-06T09:38:18;4.04;;;4.04;;
66669;SDS011;53568;52.164;4.472;2024-01-06T09:40:44;3.77;;;3.77;;
66669;SDS011;53568;52.164;4.472;2024-01-06T09:43:11;3.75;;;3.75;;
66669;SDS011;53568;52.164;4.472;2024-01-06T09:45:37;3.61;;;3.61;;
66669;SDS011;53568;52.164;4.472;2024-01-06T09:48:11;3.64;;;3.64;;
66669;SDS011;53568;52.164;4.472;2024-01-06T09:50:42;3.53;;;3.53;;
66669;SDS011;53568;52.164;4.472;2024-01-06T09:53:12;3.84;;;3.84;;
66669;SDS011;53568;52.164;4.472;2024-01-06T09:55:39;3.84;;;3.84;;
66669;SDS011;53568;52.164;4.472;2024-01-06T09:58:05;4.01;;;4.01;;
66669;SDS011;53568;52.164;4.472;2024-01-06T10:00:34;3.92;;;3.92;;
66669;SDS011;53568;52.164;4.472;2024-01-06T10:02:59;3.78;;;3.78;;
66669;SDS011;53568;52.164;4.472;2024-01-06T10:05:25;3.72;;;3.72;;
66669;SDS011;53568;52.164;4.472;2024-01-06T10:07:50;3.87;;;3.87;;
66669;SDS011;53568;52.164;4.472;2024-01-06T10:10:16;3.70;;;3.70;;
66669;SDS011;53568;52.164;4.472;2024-01-06T10:12:41;3.81;;;3.81;;
66669;SDS011;53568;52.164;4.472;2024-01-06T10:15:08;3.78;;;3.78;;
66669;SDS011;53568;52.164;4.472;2024-01-06T10:17:38;3.86;;;3.86;;
66669;SDS011;53568;52.164;4.472;2024-01-06T10:20:08;3.76;;;3.76;;
66669;SDS011;53568;52.164;4.472;2024-01-06T10:22:40;4.10;;;4.10;;
66669;SDS011;53568;52.164;4.472;2024-01-06T10:25:07;3.91;;;3.91;;
66669;SDS011;53568;52.164;4.472;2024-01-06T10:27:35;3.85;;;3.85;;
66669;SDS011;53568;52.164;4.472;2024-01-06T10:30:01;3.92;;;3.92;;
66669;SDS011;53568;52.164;4.472;2024-01-06T10:32:27;4.40;;;4.40;;
66669;SDS011;53568;52.164;4.472;2024-01-06T10:34:55;4.20;;;4.20;;
66669;SDS011;53568;52.164;4.472;2024-01-06T10:37:21;4.34;;;4.34;;
66669;SDS011;53568;52.164;4.472;2024-01-06T10:39:47;4.60;;;4.60;;
66669;SDS011;53568;52.164;4.472;2024-01-06T10:42:12;4.64;;;4.64;;
66669;SDS011;53568;52.164;4.472;2024-01-06T10:44:40;5.05;;;5.05;;
66669;SDS011;53568;52.164;4.472;2024-01-06T10:47:10;4.92;;;4.92;;
66669;SDS011;53568;52.164;4.472;2024-01-06T10:49:40;5.13;;;5.13;;
66669;SDS011;53568;52.164;4.472;2024-01-06T10:52:09;5.06;;;5.06;;
66669;SDS011;53568;52.164;4.472;2024-01-06T10:54:35;5.13;;;5.13;;
66669;SDS011;53568;52.164;4.472;2024-01-06T10:57:02;5.33;;;5.33;;
66669;SDS011;53568;52.164;4.472;2024-01-06T10:59:28;5.29;;;5.27;;
66669;SDS011;53568;52.164;4.472;2024-01-06T11:01:58;5.24;;;5.23;;
66669;SDS011;53568;52.164;4.472;2024-01-06T11:04:25;4.99;;;4.99;;
66669;SDS011;53568;52.164;4.472;2024-01-06T11:06:51;5.24;;;5.24;;
66669;SDS011;53568;52.164;4.472;2024-01-06T11:09:21;4.89;;;4.89;;
66669;SDS011;53568;52.164;4.472;2024-01-06T11:11:52;4.65;;;4.65;;
66669;SDS011;53568;52.164;4.472;2024-01-06T11:14:23;4.78;;;4.78;;
66669;SDS011;53568;52.164;4.472;2024-01-06T11:16:51;4.48;;;4.48;;
66669;SDS011;53568;52.164;4.472;2024-01-06T11:22:17;4.10;;;4.10;;
66669;SDS011;53568;52.164;4.472;2024-01-06T11:24:53;3.87;;;3.87;;
66669;SDS011;53568;52.164;4.472;2024-01-06T11:27:25;4.03;;;4.03;;
66669;SDS011;53568;52.164;4.472;2024-01-06T11:30:00;4.20;;;4.20;;
66669;SDS011;53568;52.164;4.472;2024-01-06T11:32:33;4.15;;;4.14;;
66669;SDS011;53568;52.164;4.472;2024-01-06T11:35:07;3.99;;;3.98;;
66669;SDS011;53568;52.164;4.472;2024-01-06T11:37:50;3.95;;;3.94;;
66669;SDS011;53568;52.164;4.472;2024-01-06T11:42:46;3.46;;;3.46;;
66669;SDS011;53568;52.164;4.472;2024-01-06T11:45:13;3.32;;;3.32;;
66669;SDS011;53568;52.164;4.472;2024-01-06T11:47:43;3.20;;;3.20;;
66669;SDS011;53568;52.164;4.472;2024-01-06T11:50:13;2.83;;;2.83;;
66669;SDS011;53568;52.164;4.472;2024-01-06T11:52:39;2.84;;;2.84;;
66669;SDS011;53568;52.164;4.472;2024-01-06T11:55:05;2.65;;;2.65;;
66669;SDS011;53568;52.164;4.472;2024-01-06T11:57:34;2.44;;;2.44;;
66669;SDS011;53568;52.164;4.472;2024-01-06T12:00:00;2.50;;;2.49;;
66669;SDS011;53568;52.164;4.472;2024-01-06T12:02:25;2.33;;;2.33;;
66669;SDS011;53568;52.164;4.472;2024-01-06T12:04:51;2.43;;;2.43;;
66669;SDS011;53568;52.164;4.472;2024-01-06T12:07:19;2.57;;;2.57;;
66669;SDS011;53568;52.164;4.472;2024-01-06T12:09:47;2.78;;;2.78;;
66669;SDS011;53568;52.164;4.472;2024-01-06T12:12:25;2.63;;;2.63;;
66669;SDS011;53568;52.164;4.472;2024-01-06T12:14:50;2.75;;;2.75;;
66669;SDS011;53568;52.164;4.472;2024-01-06T12:17:16;2.80;;;2.80;;
66669;SDS011;53568;52.164;4.472;2024-01-06T12:19:41;2.76;;;2.76;;
66669;SDS011;53568;52.164;4.472;2024-01-06T12:22:09;2.89;;;2.89;;
66669;SDS011;53568;52.164;4.472;2024-01-06T12:24:41;2.83;;;2.83;;
66669;SDS011;53568;52.164;4.472;2024-01-06T12:27:08;2.88;;;2.88;;
66669;SDS011;53568;52.164;4.472;2024-01-06T12:29:38;3.31;;;3.30;;
66669;SDS011;53568;52.164;4.472;2024-01-06T12:32:05;3.63;;;3.60;;
66669;SDS011;53568;52.164;4.472;2024-01-06T12:34:32;3.49;;;3.47;;
66669;SDS011;53568;52.164;4.472;2024-01-06T12:36:59;3.65;;;3.65;;
66669;SDS011;53568;52.164;4.472;2024-01-06T12:39:29;3.71;;;3.71;;
66669;SDS011;53568;52.164;4.472;2024-01-06T12:41:56;3.66;;;3.66;;
66669;SDS011;53568;52.164;4.472;2024-01-06T12:44:22;3.42;;;3.42;;
66669;SDS011;53568;52.164;4.472;2024-01-06T12:46:48;3.16;;;3.16;;
66669;SDS011;53568;52.164;4.472;2024-01-06T12:49:14;3.10;;;3.10;;
66669;SDS011;53568;52.164;4.472;2024-01-06T12:51:40;3.39;;;3.39;;
66669;SDS011;53568;52.164;4.472;2024-01-06T12:54:05;2.94;;;2.94;;
66669;SDS011;53568;52.164;4.472;2024-01-06T12:56:31;3.14;;;3.14;;
66669;SDS011;53568;52.164;4.472;2024-01-06T12:58:56;3.11;;;3.11;;
66669;SDS011;53568;52.164;4.472;2024-01-06T13:01:22;3.10;;;3.10;;
66669;SDS011;53568;52.164;4.472;2024-01-06T13:03:47;3.32;;;3.32;;
66669;SDS011;53568;52.164;4.472;2024-01-06T13:06:13;2.73;;;2.72;;
66669;SDS011;53568;52.164;4.472;2024-01-06T13:08:41;2.75;;;2.73;;
66669;SDS011;53568;52.164;4.472;2024-01-06T13:11:07;2.89;;;2.88;;
66669;SDS011;53568;52.164;4.472;2024-01-06T13:13:34;2.63;;;2.63;;
66669;SDS011;53568;52.164;4.472;2024-01-06T13:15:59;2.52;;;2.52;;
66669;SDS011;53568;52.164;4.472;2024-01-06T13:18:28;2.29;;;2.29;;
66669;SDS011;53568;52.164;4.472;2024-01-06T13:20:55;2.50;;;2.50;;
66669;SDS011;53568;52.164;4.472;2024-01-06T13:23:20;2.64;;;2.64;;
66669;SDS011;53568;52.164;4.472;2024-01-06T13:25:45;2.72;;;2.72;;
66669;SDS011;53568;52.164;4.472;2024-01-06T13:28:11;2.91;;;2.91;;
66669;SDS011;53568;52.164;4.472;2024-01-06T13:30:37;2.84;;;2.84;;
66669;SDS011;53568;52.164;4.472;2024-01-06T13:33:04;2.65;;;2.65;;
66669;SDS011;53568;52.164;4.472;2024-01-06T13:35:30;2.70;;;2.70;;
66669;SDS011;53568;52.164;4.472;2024-01-06T13:37:56;2.61;;;2.61;;
66669;SDS011;53568;52.164;4.472;2024-01-06T13:40:22;2.70;;;2.70;;
66669;SDS011;53568;52.164;4.472;2024-01-06T13:42:49;2.70;;;2.70;;
66669;SDS011;53568;52.164;4.472;2024-01-06T13:45:19;2.58;;;2.58;;
66669;SDS011;53568;52.164;4.472;2024-01-06T13:47:45;2.73;;;2.73;;
66669;SDS011;53568;52.164;4.472;2024-01-06T13:50:12;2.61;;;2.61;;
66669;SDS011;53568;52.164;4.472;2024-01-06T13:52:39;2.77;;;2.77;;
66669;SDS011;53568;52.164;4.472;2024-01-06T13:55:05;2.67;;;2.67;;
66669;SDS011;53568;52.164;4.472;2024-01-06T13:57:31;2.74;;;2.74;;
66669;SDS011;53568;52.164;4.472;2024-01-06T13:59:57;3.03;;;3.03;;
66669;SDS011;53568;52.164;4.472;2024-01-06T14:02:23;2.76;;;2.76;;
66669;SDS011;53568;52.164;4.472;2024-01-06T14:04:49;2.66;;;2.66;;
66669;SDS011;53568;52.164;4.472;2024-01-06T14:07:16;2.90;;;2.90;;
66669;SDS011;53568;52.164;4.472;2024-01-06T14:09:47;2.78;;;2.78;;
66669;SDS011;53568;52.164;4.472;2024-01-06T14:12:13;2.84;;;2.84;;
66669;SDS011;53568;52.164;4.472;2024-01-06T14:14:39;2.77;;;2.77;;
66669;SDS011;53568;52.164;4.472;2024-01-06T14:17:06;2.87;;;2.87;;
66669;SDS011;53568;52.164;4.472;2024-01-06T14:19:33;2.60;;;2.60;;
66669;SDS011;53568;52.164;4.472;2024-01-06T14:21:59;2.65;;;2.65;;
66669;SDS011;53568;52.164;4.472;2024-01-06T14:24:24;2.27;;;2.27;;
66669;SDS011;53568;52.164;4.472;2024-01-06T14:26:50;2.36;;;2.36;;
66669;SDS011;53568;52.164;4.472;2024-01-06T14:29:16;2.31;;;2.31;;
66669;SDS011;53568;52.164;4.472;2024-01-06T14:31:42;2.17;;;2.17;;
66669;SDS011;53568;52.164;4.472;2024-01-06T14:34:08;2.16;;;2.16;;
66669;SDS011;53568;52.164;4.472;2024-01-06T14:36:34;2.37;;;2.37;;
66669;SDS011;53568;52.164;4.472;2024-01-06T14:38:59;2.41;;;2.41;;
66669;SDS011;53568;52.164;4.472;2024-01-06T14:41:26;2.42;;;2.42;;
66669;SDS011;53568;52.164;4.472;2024-01-06T14:43:52;2.73;;;2.73;;
66669;SDS011;53568;52.164;4.472;2024-01-06T14:46:17;2.64;;;2.64;;
66669;SDS011;53568;52.164;4.472;2024-01-06T14:48:43;2.71;;;2.71;;